createdAt,value
2022-11-15T00:00:11.140Z,963.62
2022-11-15T00:01:01.101Z,963.57
2022-11-15T00:01:51.497Z,963.58
2022-11-15T00:02:41.094Z,963.54
2022-11-15T00:03:31.576Z,963.58
2022-11-15T00:04:21.102Z,963.53
2022-11-15T00:05:11.074Z,963.50
2022-11-15T00:06:01.049Z,963.46
2022-11-15T00:06:51.080Z,963.49
2022-11-15T00:07:55.121Z,963.48
2022-11-15T00:08:32.042Z,963.43
2022-11-15T00:09:21.010Z,963.48
2022-11-15T00:10:11.023Z,963.44
2022-11-15T00:11:01.026Z,963.44
2022-11-15T00:11:50.991Z,963.43
2022-11-15T00:12:40.979Z,963.44
2022-11-15T00:13:31.449Z,963.39
2022-11-15T00:14:20.988Z,963.40
2022-11-15T00:15:10.951Z,963.41
2022-11-15T00:16:01.193Z,963.39
2022-11-15T00:16:50.933Z,963.41
2022-11-15T00:17:40.920Z,963.40
2022-11-15T00:18:30.921Z,963.37
2022-11-15T00:19:20.911Z,963.40
2022-11-15T00:20:10.906Z,963.38
2022-11-15T00:21:00.881Z,963.37
2022-11-15T00:21:50.914Z,963.34
2022-11-15T00:22:40.881Z,963.35
2022-11-15T00:23:31.164Z,963.32
2022-11-15T00:24:20.841Z,963.34
2022-11-15T00:25:10.869Z,963.30
2022-11-15T00:26:00.819Z,963.37
2022-11-15T00:26:50.812Z,963.35
2022-11-15T00:27:40.878Z,963.39
2022-11-15T00:28:30.812Z,963.36
2022-11-15T00:29:20.822Z,963.39
2022-11-15T00:30:10.789Z,963.35
2022-11-15T00:31:00.789Z,963.31
2022-11-15T00:31:50.759Z,963.31
2022-11-15T00:32:40.773Z,963.29
2022-11-15T00:33:31.067Z,963.28
2022-11-15T00:34:20.739Z,963.27
2022-11-15T00:35:10.729Z,963.27
2022-11-15T00:36:00.710Z,963.26
2022-11-15T00:36:50.765Z,963.22
2022-11-15T00:37:40.709Z,963.25
2022-11-15T00:38:30.909Z,963.24
2022-11-15T00:39:20.698Z,963.25
2022-11-15T00:40:10.678Z,963.24
2022-11-15T00:41:03.874Z,963.23
2022-11-15T00:41:51.670Z,963.24
2022-11-15T00:42:40.667Z,963.19
2022-11-15T00:43:30.946Z,963.17
2022-11-15T00:44:20.619Z,963.17
2022-11-15T00:45:10.751Z,963.15
2022-11-15T00:46:00.621Z,963.12
2022-11-15T00:46:50.807Z,963.13
2022-11-15T00:47:40.605Z,963.15
2022-11-15T00:48:30.566Z,963.11
2022-11-15T00:49:20.565Z,963.11
2022-11-15T00:50:14.205Z,963.15
2022-11-15T00:51:00.547Z,963.14
2022-11-15T00:51:50.543Z,963.12
2022-11-15T00:52:44.755Z,963.11
2022-11-15T00:53:30.780Z,963.11
2022-11-15T00:54:20.525Z,963.11
2022-11-15T00:55:10.635Z,963.07
2022-11-15T00:56:00.516Z,963.07
2022-11-15T00:56:50.477Z,963.05
2022-11-15T00:57:40.582Z,963.03
2022-11-15T00:58:30.496Z,963.01
2022-11-15T00:59:20.483Z,963.01
2022-11-15T01:00:10.479Z,963.00
2022-11-15T01:01:00.486Z,962.96
2022-11-15T01:01:50.444Z,962.97
2022-11-15T01:02:40.416Z,962.98
2022-11-15T01:03:30.763Z,962.92
2022-11-15T01:04:20.633Z,962.97
2022-11-15T01:05:10.382Z,962.89
2022-11-15T01:06:00.392Z,962.90
2022-11-15T01:06:50.423Z,962.86
2022-11-15T01:07:40.382Z,962.87
2022-11-15T01:08:30.376Z,962.86
2022-11-15T01:09:20.362Z,962.88
2022-11-15T01:10:10.352Z,962.89
2022-11-15T01:11:00.342Z,962.89
2022-11-15T01:11:50.325Z,962.85
2022-11-15T01:12:40.301Z,962.89
2022-11-15T01:13:30.547Z,962.88
2022-11-15T01:14:25.118Z,962.88
2022-11-15T01:15:11.319Z,962.84
2022-11-15T01:16:00.269Z,962.88
2022-11-15T01:16:50.263Z,962.86
2022-11-15T01:17:40.259Z,962.89
2022-11-15T01:18:30.253Z,962.87
2022-11-15T01:19:20.260Z,962.85
2022-11-15T01:20:10.242Z,962.84
2022-11-15T01:21:00.260Z,962.83
2022-11-15T01:21:50.240Z,962.80
2022-11-15T01:22:40.206Z,962.80
2022-11-15T01:23:30.572Z,962.83
2022-11-15T01:24:20.199Z,962.90
2022-11-15T01:25:10.180Z,962.85
2022-11-15T01:26:00.166Z,962.85
2022-11-15T01:26:50.370Z,962.89
2022-11-15T01:27:40.160Z,962.89
2022-11-15T01:28:30.150Z,962.82
2022-11-15T01:29:20.137Z,962.81
2022-11-15T01:30:10.129Z,962.80
2022-11-15T01:31:00.109Z,962.82
2022-11-15T01:31:50.108Z,962.80
2022-11-15T01:32:40.119Z,962.79
2022-11-15T01:33:30.571Z,962.82
2022-11-15T01:34:20.308Z,962.79
2022-11-15T01:35:10.077Z,962.78
2022-11-15T01:36:00.054Z,962.74
2022-11-15T01:36:50.045Z,962.73
2022-11-15T01:37:40.038Z,962.73
2022-11-15T01:38:30.018Z,962.75
2022-11-15T01:39:20.021Z,962.73
2022-11-15T01:40:10.057Z,962.78
2022-11-15T01:40:59.997Z,962.69
2022-11-15T01:41:49.977Z,962.73
2022-11-15T01:42:39.975Z,962.70
2022-11-15T01:43:30.240Z,962.67
2022-11-15T01:44:19.977Z,962.69
2022-11-15T01:45:09.956Z,962.66
2022-11-15T01:46:00.159Z,962.64
2022-11-15T01:46:49.936Z,962.66
2022-11-15T01:47:39.954Z,962.66
2022-11-15T01:48:29.917Z,962.62
2022-11-15T01:49:19.905Z,962.58
2022-11-15T01:50:09.898Z,962.56
2022-11-15T01:50:59.889Z,962.54
2022-11-15T01:51:49.933Z,962.55
2022-11-15T01:52:39.874Z,962.52
2022-11-15T01:53:30.070Z,962.54
2022-11-15T01:54:19.843Z,962.50
2022-11-15T01:55:09.843Z,962.50
2022-11-15T01:55:59.844Z,962.56
2022-11-15T01:56:49.812Z,962.53
2022-11-15T01:57:40.053Z,962.55
2022-11-15T01:58:29.813Z,962.58
2022-11-15T01:59:19.803Z,962.54
2022-11-15T02:00:09.778Z,962.61
2022-11-15T02:00:59.830Z,962.60
2022-11-15T02:01:49.764Z,962.59
2022-11-15T02:02:39.743Z,962.61
2022-11-15T02:03:30.012Z,962.61
2022-11-15T02:04:19.736Z,962.67
2022-11-15T02:05:09.723Z,962.61
2022-11-15T02:05:59.761Z,962.56
2022-11-15T02:06:49.768Z,962.51
2022-11-15T02:07:39.711Z,962.45
2022-11-15T02:08:29.701Z,962.43
2022-11-15T02:09:19.718Z,962.43
2022-11-15T02:10:09.672Z,962.43
2022-11-15T02:10:59.656Z,962.44
2022-11-15T02:11:49.643Z,962.42
2022-11-15T02:12:39.661Z,962.44
2022-11-15T02:13:29.951Z,962.46
2022-11-15T02:14:19.631Z,962.39
2022-11-15T02:15:09.618Z,962.40
2022-11-15T02:16:02.990Z,962.40
2022-11-15T02:16:49.606Z,962.35
2022-11-15T02:17:39.581Z,962.34
2022-11-15T02:18:29.567Z,962.28
2022-11-15T02:19:19.779Z,962.33
2022-11-15T02:20:09.566Z,962.33
2022-11-15T02:20:59.558Z,962.29
2022-11-15T02:21:49.530Z,962.30
2022-11-15T02:22:39.520Z,962.28
2022-11-15T02:23:29.900Z,962.27
2022-11-15T02:24:19.517Z,962.24
2022-11-15T02:25:09.540Z,962.28
2022-11-15T02:25:59.490Z,962.23
2022-11-15T02:26:49.469Z,962.25
2022-11-15T02:27:39.474Z,962.26
2022-11-15T02:28:29.462Z,962.26
2022-11-15T02:29:19.469Z,962.25
2022-11-15T02:30:09.498Z,962.25
2022-11-15T02:30:59.451Z,962.24
2022-11-15T02:31:49.418Z,962.22
2022-11-15T02:32:39.417Z,962.25
2022-11-15T02:33:29.810Z,962.28
2022-11-15T02:34:19.395Z,962.26
2022-11-15T02:35:09.399Z,962.30
2022-11-15T02:35:59.445Z,962.27
2022-11-15T02:36:49.388Z,962.25
2022-11-15T02:37:39.418Z,962.22
2022-11-15T02:38:29.338Z,962.21
2022-11-15T02:39:19.359Z,962.20
2022-11-15T02:40:09.346Z,962.20
2022-11-15T02:40:59.319Z,962.19
2022-11-15T02:41:49.514Z,962.17
2022-11-15T02:42:39.314Z,962.18
2022-11-15T02:43:29.573Z,962.11
2022-11-15T02:44:19.510Z,962.15
2022-11-15T02:45:09.284Z,962.10
2022-11-15T02:45:59.257Z,962.07
2022-11-15T02:46:49.261Z,962.08
2022-11-15T02:47:39.285Z,962.13
2022-11-15T02:48:29.243Z,962.11
2022-11-15T02:49:19.242Z,962.08
2022-11-15T02:50:09.460Z,962.11
2022-11-15T02:50:59.206Z,962.10
2022-11-15T02:51:49.203Z,962.03
2022-11-15T02:52:39.203Z,962.04
2022-11-15T02:53:29.594Z,962.04
2022-11-15T02:54:19.164Z,962.02
2022-11-15T02:55:09.153Z,961.99
2022-11-15T02:55:59.187Z,961.98
2022-11-15T02:56:49.144Z,962.01
2022-11-15T02:57:39.142Z,961.99
2022-11-15T02:58:29.140Z,962.02
2022-11-15T02:59:19.526Z,962.01
2022-11-15T03:00:09.102Z,961.99
2022-11-15T03:00:59.171Z,962.01
2022-11-15T03:01:49.104Z,962.01
2022-11-15T03:02:39.091Z,961.98
2022-11-15T03:03:29.399Z,962.01
2022-11-15T03:04:19.069Z,962.00
2022-11-15T03:05:09.085Z,961.99
2022-11-15T03:05:59.052Z,961.99
2022-11-15T03:06:49.079Z,961.98
2022-11-15T03:07:39.031Z,961.96
2022-11-15T03:08:29.012Z,961.88
2022-11-15T03:09:19.030Z,961.90
2022-11-15T03:10:08.992Z,961.93
2022-11-15T03:10:59.046Z,961.89
2022-11-15T03:11:48.969Z,961.85
2022-11-15T03:12:38.966Z,961.84
2022-11-15T03:13:29.213Z,961.84
2022-11-15T03:14:18.956Z,961.86
2022-11-15T03:15:08.929Z,961.83
2022-11-15T03:15:58.933Z,961.84
2022-11-15T03:16:48.928Z,961.85
2022-11-15T03:17:38.909Z,961.79
2022-11-15T03:18:28.897Z,961.80
2022-11-15T03:19:18.919Z,961.78
2022-11-15T03:20:08.877Z,961.81
2022-11-15T03:20:58.869Z,961.78
2022-11-15T03:21:48.871Z,961.79
2022-11-15T03:22:38.907Z,961.76
2022-11-15T03:23:29.208Z,961.78
2022-11-15T03:24:23.261Z,961.77
2022-11-15T03:25:09.828Z,961.75
2022-11-15T03:25:58.829Z,961.77
2022-11-15T03:26:48.796Z,961.74
2022-11-15T03:27:39.105Z,961.76
2022-11-15T03:28:28.796Z,961.80
2022-11-15T03:29:18.806Z,961.83
2022-11-15T03:30:08.788Z,961.82
2022-11-15T03:30:58.785Z,961.78
2022-11-15T03:31:50.939Z,961.76
2022-11-15T03:32:38.735Z,961.73
2022-11-15T03:33:29.074Z,961.70
2022-11-15T03:34:18.744Z,961.69
2022-11-15T03:35:08.726Z,961.71
2022-11-15T03:35:58.749Z,961.71
2022-11-15T03:36:48.695Z,961.71
2022-11-15T03:37:38.684Z,961.68
2022-11-15T03:38:28.765Z,961.70
2022-11-15T03:39:20.716Z,961.75
2022-11-15T03:40:08.672Z,961.76
2022-11-15T03:40:58.655Z,961.73
2022-11-15T03:41:48.633Z,961.74
2022-11-15T03:42:38.645Z,961.75
2022-11-15T03:43:29.118Z,961.72
2022-11-15T03:44:18.614Z,961.74
2022-11-15T03:45:08.618Z,961.66
2022-11-15T03:45:58.583Z,961.69
2022-11-15T03:46:48.785Z,961.65
2022-11-15T03:47:38.582Z,961.67
2022-11-15T03:48:28.580Z,961.62
2022-11-15T03:49:18.803Z,961.64
2022-11-15T03:50:08.542Z,961.60
2022-11-15T03:50:58.536Z,961.61
2022-11-15T03:51:48.523Z,961.64
2022-11-15T03:52:38.524Z,961.63
2022-11-15T03:53:28.586Z,961.66
2022-11-15T03:54:18.494Z,961.65
2022-11-15T03:55:08.732Z,961.64
2022-11-15T03:55:58.474Z,961.64
2022-11-15T03:56:48.494Z,961.64
2022-11-15T03:57:38.459Z,961.65
2022-11-15T03:58:28.451Z,961.65
2022-11-15T03:59:18.461Z,961.64
2022-11-15T04:00:08.462Z,961.66
2022-11-15T04:00:58.708Z,961.68
2022-11-15T04:01:48.422Z,961.68
2022-11-15T04:02:38.422Z,961.66
2022-11-15T04:03:28.537Z,961.66
2022-11-15T04:04:18.391Z,961.63
2022-11-15T04:05:08.395Z,961.62
2022-11-15T04:05:58.361Z,961.57
2022-11-15T04:06:48.460Z,961.66
2022-11-15T04:07:38.360Z,961.58
2022-11-15T04:08:28.360Z,961.55
2022-11-15T04:09:18.332Z,961.49
2022-11-15T04:10:08.321Z,961.52
2022-11-15T04:10:58.993Z,961.55
2022-11-15T04:11:48.324Z,961.49
2022-11-15T04:12:38.311Z,961.51
2022-11-15T04:13:28.293Z,961.49
2022-11-15T04:14:18.281Z,961.47
2022-11-15T04:15:08.381Z,961.49
2022-11-15T04:15:58.269Z,961.45
2022-11-15T04:16:48.280Z,961.46
2022-11-15T04:17:38.258Z,961.42
2022-11-15T04:18:28.237Z,961.41
2022-11-15T04:19:18.238Z,961.42
2022-11-15T04:20:08.239Z,961.44
2022-11-15T04:20:58.198Z,961.43
2022-11-15T04:21:48.244Z,961.43
2022-11-15T04:22:38.188Z,961.36
2022-11-15T04:23:28.516Z,961.38
2022-11-15T04:24:18.177Z,961.37
2022-11-15T04:25:08.164Z,961.41
2022-11-15T04:25:58.139Z,961.41
2022-11-15T04:26:48.144Z,961.40
2022-11-15T04:27:38.124Z,961.39
2022-11-15T04:28:28.117Z,961.35
2022-11-15T04:29:18.379Z,961.36
2022-11-15T04:30:08.117Z,961.33
2022-11-15T04:30:58.096Z,961.35
2022-11-15T04:31:48.096Z,961.35
2022-11-15T04:32:38.067Z,961.34
2022-11-15T04:33:28.056Z,961.34
2022-11-15T04:34:18.064Z,961.30
2022-11-15T04:35:08.076Z,961.26
2022-11-15T04:35:58.046Z,961.18
2022-11-15T04:36:48.034Z,961.18
2022-11-15T04:37:38.024Z,961.19
2022-11-15T04:38:28.006Z,961.15
2022-11-15T04:39:18.012Z,961.11
2022-11-15T04:40:08.003Z,961.10
2022-11-15T04:40:57.996Z,961.06
2022-11-15T04:41:48.006Z,961.01
2022-11-15T04:42:37.964Z,961.02
2022-11-15T04:43:27.960Z,960.98
2022-11-15T04:44:17.940Z,961.01
2022-11-15T04:45:07.945Z,961.04
2022-11-15T04:45:57.915Z,961.07
2022-11-15T04:46:47.944Z,961.13
2022-11-15T04:47:37.893Z,961.15
2022-11-15T04:48:27.896Z,961.18
2022-11-15T04:49:17.961Z,961.25
2022-11-15T04:50:07.874Z,961.22
2022-11-15T04:50:57.896Z,961.23
2022-11-15T04:51:47.882Z,961.19
2022-11-15T04:52:37.842Z,961.20
2022-11-15T04:53:27.851Z,961.18
2022-11-15T04:54:17.842Z,961.12
2022-11-15T04:55:08.401Z,961.12
2022-11-15T04:55:57.810Z,961.11
2022-11-15T04:56:47.813Z,961.14
2022-11-15T04:57:37.937Z,961.09
2022-11-15T04:58:27.789Z,961.10
2022-11-15T04:59:17.782Z,961.05
2022-11-15T05:00:07.791Z,961.01
2022-11-15T05:00:57.812Z,960.96
2022-11-15T05:01:47.783Z,960.94
2022-11-15T05:02:37.737Z,960.89
2022-11-15T05:03:27.740Z,960.91
2022-11-15T05:04:17.711Z,960.88
2022-11-15T05:05:07.710Z,960.92
2022-11-15T05:05:57.711Z,960.89
2022-11-15T05:06:47.774Z,960.93
2022-11-15T05:07:37.709Z,960.91
2022-11-15T05:08:27.689Z,961.03
2022-11-15T05:09:17.675Z,961.02
2022-11-15T05:10:07.650Z,961.06
2022-11-15T05:10:57.656Z,961.05
2022-11-15T05:11:47.661Z,961.02
2022-11-15T05:12:37.660Z,961.02
2022-11-15T05:13:27.640Z,961.02
2022-11-15T05:14:17.617Z,961.00
2022-11-15T05:15:07.608Z,960.96
2022-11-15T05:15:57.579Z,960.98
2022-11-15T05:16:47.610Z,960.91
2022-11-15T05:17:37.569Z,960.93
2022-11-15T05:18:27.567Z,960.92
2022-11-15T05:19:17.665Z,960.93
2022-11-15T05:20:07.545Z,960.94
2022-11-15T05:20:57.546Z,960.86
2022-11-15T05:21:47.521Z,960.83
2022-11-15T05:22:37.507Z,960.84
2022-11-15T05:23:27.517Z,960.81
2022-11-15T05:24:17.509Z,960.82
2022-11-15T05:25:07.576Z,960.76
2022-11-15T05:25:57.514Z,960.76
2022-11-15T05:26:47.477Z,960.72
2022-11-15T05:27:37.479Z,960.64
2022-11-15T05:28:27.465Z,960.60
2022-11-15T05:29:17.446Z,960.52
2022-11-15T05:30:07.430Z,960.54
2022-11-15T05:30:57.426Z,960.50
2022-11-15T05:31:47.426Z,960.47
2022-11-15T05:32:37.413Z,960.48
2022-11-15T05:33:27.415Z,960.49
2022-11-15T05:34:17.375Z,960.56
2022-11-15T05:35:07.374Z,960.60
2022-11-15T05:35:57.632Z,960.61
2022-11-15T05:36:47.378Z,960.69
2022-11-15T05:37:37.356Z,960.72
2022-11-15T05:38:27.352Z,960.77
2022-11-15T05:39:17.336Z,960.83
2022-11-15T05:40:07.342Z,960.87
2022-11-15T05:40:57.320Z,960.86
2022-11-15T05:41:47.322Z,960.79
2022-11-15T05:42:37.292Z,960.81
2022-11-15T05:43:27.296Z,960.79
2022-11-15T05:44:17.324Z,960.84
2022-11-15T05:45:07.294Z,960.84
2022-11-15T05:45:57.261Z,960.85
2022-11-15T05:46:47.252Z,960.85
2022-11-15T05:47:37.252Z,960.84
2022-11-15T05:48:27.463Z,960.87
2022-11-15T05:49:17.220Z,960.88
2022-11-15T05:50:07.201Z,960.88
2022-11-15T05:50:57.210Z,960.81
2022-11-15T05:51:47.191Z,960.79
2022-11-15T05:52:37.171Z,960.75
2022-11-15T05:53:27.200Z,960.66
2022-11-15T05:54:17.173Z,960.68
2022-11-15T05:55:07.160Z,960.67
2022-11-15T05:55:57.143Z,960.73
2022-11-15T05:56:47.147Z,960.74
2022-11-15T05:57:37.142Z,960.72
2022-11-15T05:58:27.131Z,960.70
2022-11-15T05:59:17.325Z,960.74
2022-11-15T06:00:07.529Z,960.73
2022-11-15T06:00:57.090Z,960.73
2022-11-15T06:01:47.125Z,960.77
2022-11-15T06:02:37.096Z,960.75
2022-11-15T06:03:27.069Z,960.68
2022-11-15T06:04:17.060Z,960.64
2022-11-15T06:05:07.028Z,960.70
2022-11-15T06:05:57.038Z,960.68
2022-11-15T06:06:47.095Z,960.66
2022-11-15T06:07:37.069Z,960.67
2022-11-15T06:08:26.990Z,960.69
2022-11-15T06:09:16.989Z,960.67
2022-11-15T06:10:07.229Z,960.68
2022-11-15T06:10:56.985Z,960.66
2022-11-15T06:11:46.993Z,960.69
2022-11-15T06:12:36.948Z,960.72
2022-11-15T06:13:26.938Z,960.75
2022-11-15T06:14:16.951Z,960.71
2022-11-15T06:15:06.939Z,960.71
2022-11-15T06:15:56.935Z,960.70
2022-11-15T06:16:46.913Z,960.60
2022-11-15T06:17:36.898Z,960.62
2022-11-15T06:18:26.911Z,960.64
2022-11-15T06:19:16.880Z,960.64
2022-11-15T06:20:06.871Z,960.66
2022-11-15T06:20:56.859Z,960.69
2022-11-15T06:21:47.109Z,960.67
2022-11-15T06:22:36.852Z,960.66
2022-11-15T06:23:26.861Z,960.57
2022-11-15T06:24:16.851Z,960.60
2022-11-15T06:25:06.819Z,960.56
2022-11-15T06:25:56.806Z,960.55
2022-11-15T06:26:46.788Z,960.55
2022-11-15T06:27:36.871Z,960.51
2022-11-15T06:28:26.764Z,960.50
2022-11-15T06:29:16.742Z,960.50
2022-11-15T06:30:06.752Z,960.50
2022-11-15T06:30:56.743Z,960.49
2022-11-15T06:31:46.736Z,960.55
2022-11-15T06:32:36.730Z,960.58
2022-11-15T06:33:26.781Z,960.60
2022-11-15T06:34:16.716Z,960.59
2022-11-15T06:35:06.733Z,960.59
2022-11-15T06:35:56.675Z,960.60
2022-11-15T06:36:46.660Z,960.61
2022-11-15T06:37:36.661Z,960.56
2022-11-15T06:38:26.669Z,960.54
2022-11-15T06:39:16.694Z,960.58
2022-11-15T06:40:06.620Z,960.56
2022-11-15T06:40:56.621Z,960.57
2022-11-15T06:41:46.644Z,960.53
2022-11-15T06:42:36.595Z,960.57
2022-11-15T06:43:26.607Z,960.59
2022-11-15T06:44:16.580Z,960.66
2022-11-15T06:45:06.590Z,960.60
2022-11-15T06:45:56.570Z,960.59
2022-11-15T06:46:46.580Z,960.58
2022-11-15T06:47:36.539Z,960.58
2022-11-15T06:48:26.548Z,960.62
2022-11-15T06:49:16.530Z,960.62
2022-11-15T06:50:06.528Z,960.61
2022-11-15T06:50:56.590Z,960.63
2022-11-15T06:51:46.501Z,960.62
2022-11-15T06:52:36.503Z,960.68
2022-11-15T06:53:26.488Z,960.60
2022-11-15T06:54:16.468Z,960.67
2022-11-15T06:55:06.464Z,960.66
2022-11-15T06:55:56.474Z,960.61
2022-11-15T06:56:46.689Z,960.66
2022-11-15T06:57:36.444Z,960.70
2022-11-15T06:58:26.435Z,960.71
2022-11-15T06:59:16.428Z,960.73
2022-11-15T07:00:06.434Z,960.69
2022-11-15T07:00:56.421Z,960.70
2022-11-15T07:01:46.497Z,960.71
2022-11-15T07:02:36.417Z,960.68
2022-11-15T07:03:26.368Z,960.68
2022-11-15T07:04:16.367Z,960.71
2022-11-15T07:05:06.385Z,960.72
2022-11-15T07:05:56.358Z,960.76
2022-11-15T07:06:46.407Z,960.73
2022-11-15T07:07:36.352Z,960.80
2022-11-15T07:08:26.364Z,960.79
2022-11-15T07:09:16.300Z,960.80
2022-11-15T07:10:06.296Z,960.78
2022-11-15T07:10:56.290Z,960.81
2022-11-15T07:11:46.309Z,960.84
2022-11-15T07:12:36.269Z,960.85
2022-11-15T07:13:26.254Z,960.86
2022-11-15T07:14:16.461Z,960.81
2022-11-15T07:15:06.236Z,960.83
2022-11-15T07:15:56.256Z,960.83
2022-11-15T07:16:46.220Z,960.85
2022-11-15T07:17:36.245Z,960.86
2022-11-15T07:18:26.204Z,960.87
2022-11-15T07:19:16.214Z,960.86
2022-11-15T07:20:08.731Z,960.93
2022-11-15T07:20:56.177Z,960.89
2022-11-15T07:21:46.190Z,960.93
2022-11-15T07:22:36.161Z,960.93
2022-11-15T07:23:26.153Z,960.92
2022-11-15T07:24:16.360Z,960.95
2022-11-15T07:25:06.123Z,960.91
2022-11-15T07:25:56.122Z,960.91
2022-11-15T07:26:46.139Z,960.98
2022-11-15T07:27:36.093Z,960.94
2022-11-15T07:28:26.333Z,960.99
2022-11-15T07:29:16.111Z,960.90
2022-11-15T07:30:06.075Z,960.96
2022-11-15T07:30:56.055Z,960.89
2022-11-15T07:31:46.042Z,960.88
2022-11-15T07:32:36.032Z,960.84
2022-11-15T07:33:26.029Z,960.82
2022-11-15T07:34:16.096Z,960.81
2022-11-15T07:35:06.003Z,960.81
2022-11-15T07:35:56.002Z,960.79
2022-11-15T07:36:45.982Z,960.81
2022-11-15T07:37:36.016Z,960.78
2022-11-15T07:38:25.989Z,960.77
2022-11-15T07:39:15.983Z,960.80
2022-11-15T07:40:06.002Z,960.79
2022-11-15T07:40:55.962Z,960.78
2022-11-15T07:41:45.939Z,960.76
2022-11-15T07:42:35.932Z,960.78
2022-11-15T07:43:25.927Z,960.80
2022-11-15T07:44:15.911Z,960.83
2022-11-15T07:45:05.914Z,960.81
2022-11-15T07:45:59.378Z,960.79
2022-11-15T07:46:45.894Z,960.81
2022-11-15T07:47:35.880Z,960.79
2022-11-15T07:48:26.089Z,960.79
2022-11-15T07:49:15.850Z,960.83
2022-11-15T07:50:05.851Z,960.80
2022-11-15T07:50:55.843Z,960.82
2022-11-15T07:51:45.862Z,960.83
2022-11-15T07:52:35.822Z,960.84
2022-11-15T07:53:25.789Z,960.78
2022-11-15T07:54:15.792Z,960.78
2022-11-15T07:55:05.780Z,960.77
2022-11-15T07:55:55.781Z,960.80
2022-11-15T07:56:45.776Z,960.77
2022-11-15T07:57:36.039Z,960.79
2022-11-15T07:58:25.739Z,960.76
2022-11-15T07:59:15.759Z,960.73
2022-11-15T08:00:05.758Z,960.74
2022-11-15T08:00:55.742Z,960.76
2022-11-15T08:01:45.842Z,960.77
2022-11-15T08:02:35.821Z,960.82
2022-11-15T08:03:25.929Z,960.81
2022-11-15T08:04:15.708Z,960.82
2022-11-15T08:05:05.677Z,960.78
2022-11-15T08:05:55.675Z,960.74
2022-11-15T08:06:45.707Z,960.77
2022-11-15T08:07:35.786Z,960.80
2022-11-15T08:08:25.670Z,960.75
2022-11-15T08:09:18.208Z,960.78
2022-11-15T08:10:05.652Z,960.76
2022-11-15T08:10:55.637Z,960.76
2022-11-15T08:11:45.644Z,960.75
2022-11-15T08:12:35.649Z,960.77
2022-11-15T08:13:25.587Z,960.74
2022-11-15T08:14:15.590Z,960.78
2022-11-15T08:15:05.619Z,960.71
2022-11-15T08:15:57.843Z,960.77
2022-11-15T08:16:45.549Z,960.74
2022-11-15T08:17:35.570Z,960.73
2022-11-15T08:18:25.555Z,960.75
2022-11-15T08:19:15.529Z,960.79
2022-11-15T08:20:05.511Z,960.73
2022-11-15T08:20:55.600Z,960.74
2022-11-15T08:21:45.523Z,960.71
2022-11-15T08:22:35.497Z,960.76
2022-11-15T08:23:25.481Z,960.68
2022-11-15T08:24:15.477Z,960.71
2022-11-15T08:25:05.489Z,960.72
2022-11-15T08:25:55.458Z,960.71
2022-11-15T08:26:45.591Z,960.71
2022-11-15T08:27:35.478Z,960.72
2022-11-15T08:28:25.421Z,960.70
2022-11-15T08:29:15.419Z,960.66
2022-11-15T08:30:05.423Z,960.69
2022-11-15T08:30:55.396Z,960.71
2022-11-15T08:31:45.406Z,960.64
2022-11-15T08:32:35.487Z,960.65
2022-11-15T08:33:25.369Z,960.64
2022-11-15T08:34:15.378Z,960.66
2022-11-15T08:35:05.346Z,960.60
2022-11-15T08:35:55.344Z,960.65
2022-11-15T08:36:46.261Z,960.61
2022-11-15T08:37:35.318Z,960.62
2022-11-15T08:38:25.566Z,960.61
2022-11-15T08:39:15.306Z,960.60
2022-11-15T08:40:05.358Z,960.55
2022-11-15T08:40:55.309Z,960.61
2022-11-15T08:41:45.268Z,960.61
2022-11-15T08:42:35.295Z,960.62
2022-11-15T08:43:25.250Z,960.60
2022-11-15T08:44:15.289Z,960.56
2022-11-15T08:45:05.229Z,960.58
2022-11-15T08:45:55.246Z,960.59
2022-11-15T08:46:45.214Z,960.62
2022-11-15T08:47:35.197Z,960.57
2022-11-15T08:48:25.195Z,960.59
2022-11-15T08:49:15.184Z,960.58
2022-11-15T08:50:05.394Z,960.60
2022-11-15T08:50:55.186Z,960.57
2022-11-15T08:51:45.167Z,960.58
2022-11-15T08:52:35.145Z,960.58
2022-11-15T08:53:25.157Z,960.58
2022-11-15T08:54:15.156Z,960.53
2022-11-15T08:55:05.134Z,960.57
2022-11-15T08:55:55.180Z,960.56
2022-11-15T08:56:45.123Z,960.54
2022-11-15T08:57:35.094Z,960.49
2022-11-15T08:58:25.088Z,960.50
2022-11-15T08:59:15.194Z,960.48
2022-11-15T09:00:05.064Z,960.50
2022-11-15T09:00:55.073Z,960.50
2022-11-15T09:01:45.149Z,960.51
2022-11-15T09:02:35.070Z,960.51
2022-11-15T09:03:25.024Z,960.51
2022-11-15T09:04:15.022Z,960.50
2022-11-15T09:05:05.022Z,960.49
2022-11-15T09:05:54.997Z,960.46
2022-11-15T09:06:45.004Z,960.46
2022-11-15T09:07:35.067Z,960.45
2022-11-15T09:08:46.675Z,960.48
2022-11-15T09:09:15.973Z,960.45
2022-11-15T09:10:05.074Z,960.43
2022-11-15T09:10:54.971Z,960.44
2022-11-15T09:11:44.932Z,960.44
2022-11-15T09:12:34.942Z,960.45
2022-11-15T09:13:24.973Z,960.43
2022-11-15T09:14:14.903Z,960.44
2022-11-15T09:15:04.905Z,960.39
2022-11-15T09:15:54.906Z,960.41
2022-11-15T09:16:44.882Z,960.35
2022-11-15T09:17:34.882Z,960.35
2022-11-15T09:18:24.851Z,960.36
2022-11-15T09:19:14.902Z,960.33
2022-11-15T09:20:04.861Z,960.31
2022-11-15T09:20:54.832Z,960.38
2022-11-15T09:21:44.831Z,960.37
2022-11-15T09:22:34.820Z,960.33
2022-11-15T09:23:24.791Z,960.35
2022-11-15T09:24:14.796Z,960.35
2022-11-15T09:25:08.501Z,960.34
2022-11-15T09:25:55.771Z,960.32
2022-11-15T09:26:44.760Z,960.30
2022-11-15T09:27:34.752Z,960.28
2022-11-15T09:28:24.740Z,960.32
2022-11-15T09:29:14.780Z,960.35
2022-11-15T09:30:04.742Z,960.36
2022-11-15T09:30:54.731Z,960.37
2022-11-15T09:31:44.710Z,960.32
2022-11-15T09:32:38.956Z,960.34
2022-11-15T09:33:24.708Z,960.40
2022-11-15T09:34:14.693Z,960.37
2022-11-15T09:35:04.792Z,960.33
2022-11-15T09:35:54.737Z,960.34
2022-11-15T09:36:44.659Z,960.28
2022-11-15T09:37:34.672Z,960.35
2022-11-15T09:38:24.631Z,960.31
2022-11-15T09:39:14.644Z,960.34
2022-11-15T09:40:04.630Z,960.32
2022-11-15T09:40:54.839Z,960.34
2022-11-15T09:41:44.643Z,960.30
2022-11-15T09:42:34.621Z,960.33
2022-11-15T09:43:24.578Z,960.31
2022-11-15T09:44:14.589Z,960.34
2022-11-15T09:45:04.550Z,960.36
2022-11-15T09:45:54.562Z,960.33
2022-11-15T09:46:44.771Z,960.33
2022-11-15T09:47:34.610Z,960.30
2022-11-15T09:48:24.536Z,960.29
2022-11-15T09:49:14.528Z,960.32
2022-11-15T09:50:04.497Z,960.28
2022-11-15T09:50:54.547Z,960.28
2022-11-15T09:51:44.508Z,960.27
2022-11-15T09:52:34.517Z,960.28
2022-11-15T09:53:47.930Z,960.27
2022-11-15T09:54:46.116Z,960.28
2022-11-15T09:55:05.457Z,960.26
2022-11-15T09:55:54.427Z,960.28
2022-11-15T09:56:44.434Z,960.31
2022-11-15T09:57:34.426Z,960.25
2022-11-15T09:58:24.449Z,960.25
2022-11-15T09:59:14.417Z,960.26
2022-11-15T10:00:30.836Z,960.25
2022-11-15T10:00:55.425Z,960.23
2022-11-15T10:01:44.392Z,960.17
2022-11-15T10:02:34.375Z,960.17
2022-11-15T10:03:24.368Z,960.10
2022-11-15T10:04:14.404Z,960.15
2022-11-15T10:05:04.342Z,960.16
2022-11-15T10:05:54.325Z,960.12
2022-11-15T10:06:44.317Z,960.13
2022-11-15T10:07:34.360Z,960.17
2022-11-15T10:08:24.297Z,960.13
2022-11-15T10:09:14.286Z,960.16
2022-11-15T10:10:04.365Z,960.16
2022-11-15T10:11:15.745Z,960.14
2022-11-15T10:11:45.261Z,960.15
2022-11-15T10:12:34.244Z,960.13
2022-11-15T10:13:24.244Z,960.16
2022-11-15T10:14:14.247Z,960.17
2022-11-15T10:15:04.228Z,960.15
2022-11-15T10:15:54.255Z,960.16
2022-11-15T10:16:44.231Z,960.22
2022-11-15T10:17:34.193Z,960.15
2022-11-15T10:18:24.204Z,960.16
2022-11-15T10:19:14.189Z,960.15
2022-11-15T10:20:06.140Z,960.16
2022-11-15T10:20:54.153Z,960.14
2022-11-15T10:21:44.195Z,960.18
2022-11-15T10:22:34.145Z,960.15
2022-11-15T10:23:24.127Z,960.14